createdAt,value
2017-12-17T00:02:02.231Z,3.90
2017-12-17T00:04:29.725Z,5.80
2017-12-17T00:06:57.181Z,4.17
2017-12-17T00:09:24.672Z,4.70
2017-12-17T00:11:52.202Z,4.20
2017-12-17T00:14:19.669Z,5.03
2017-12-17T00:16:47.128Z,4.63
2017-12-17T00:19:14.599Z,5.03
2017-12-17T00:21:42.077Z,5.03
2017-12-17T00:24:09.541Z,4.70
2017-12-17T00:26:36.998Z,5.03
2017-12-17T00:29:04.459Z,5.80
2017-12-17T00:31:31.940Z,5.60
2017-12-17T00:33:59.417Z,5.77
2017-12-17T00:36:26.909Z,6.10
2017-12-17T00:38:54.387Z,6.30
2017-12-17T00:41:21.843Z,6.40
2017-12-17T00:43:49.312Z,5.20
2017-12-17T00:46:16.791Z,6.20
2017-12-17T00:48:45.040Z,5.80
2017-12-17T00:51:12.494Z,5.97
2017-12-17T00:53:39.967Z,6.13
2017-12-17T00:56:07.440Z,5.90
2017-12-17T00:58:34.914Z,6.23
2017-12-17T01:01:02.455Z,5.50
2017-12-17T01:03:29.928Z,6.80
2017-12-17T01:05:57.400Z,7.63
2017-12-17T01:08:24.875Z,5.80
2017-12-17T01:10:52.360Z,5.67
2017-12-17T01:13:19.829Z,5.60
2017-12-17T01:15:48.081Z,5.70
2017-12-17T01:18:15.537Z,5.57
2017-12-17T01:20:42.990Z,6.63
2017-12-17T01:23:10.460Z,6.83
2017-12-17T01:25:37.932Z,6.20
2017-12-17T01:28:06.168Z,6.17
2017-12-17T01:30:33.672Z,6.40
2017-12-17T01:33:01.884Z,5.70
2017-12-17T01:35:29.360Z,5.60
2017-12-17T01:37:57.653Z,5.70
2017-12-17T01:40:25.132Z,4.60
2017-12-17T01:42:53.387Z,5.93
2017-12-17T01:45:20.923Z,5.90
2017-12-17T01:47:48.386Z,4.83
2017-12-17T01:50:15.851Z,6.00
2017-12-17T01:52:43.351Z,5.13
2017-12-17T01:55:11.582Z,5.43
2017-12-17T01:57:39.038Z,5.60
2017-12-17T02:00:06.533Z,6.13
2017-12-17T02:02:33.998Z,6.40
2017-12-17T02:05:01.458Z,4.60
2017-12-17T02:07:28.937Z,5.27
2017-12-17T02:09:56.377Z,3.27
2017-12-17T02:12:23.843Z,4.03
2017-12-17T02:14:51.296Z,4.80
2017-12-17T02:17:18.774Z,4.40
2017-12-17T02:19:46.243Z,4.77
2017-12-17T02:22:13.701Z,4.27
2017-12-17T02:24:41.190Z,4.67
2017-12-17T02:27:08.650Z,4.40
2017-12-17T02:29:36.128Z,4.17
2017-12-17T02:32:04.392Z,3.37
2017-12-17T02:34:31.850Z,3.20
2017-12-17T02:36:59.333Z,3.67
2017-12-17T02:39:27.120Z,4.17
2017-12-17T02:41:54.834Z,3.37
2017-12-17T02:44:22.298Z,3.43
2017-12-17T02:46:50.536Z,2.80
2017-12-17T02:49:18.026Z,2.73
2017-12-17T02:51:46.265Z,3.63
2017-12-17T02:54:13.735Z,3.27
2017-12-17T02:56:41.209Z,3.23
2017-12-17T02:59:08.670Z,2.60
2017-12-17T03:01:36.153Z,3.33
2017-12-17T03:04:03.606Z,2.47
2017-12-17T03:06:31.079Z,3.33
2017-12-17T03:08:58.539Z,2.87
2017-12-17T03:11:25.996Z,2.70
2017-12-17T03:13:53.482Z,2.53
2017-12-17T03:16:20.946Z,3.10
2017-12-17T03:18:48.433Z,2.80
2017-12-17T03:21:16.659Z,2.70
2017-12-17T03:23:44.131Z,2.83
2017-12-17T03:26:11.589Z,3.07
2017-12-17T03:28:39.054Z,3.80
2017-12-17T03:31:06.514Z,2.57
2017-12-17T03:33:33.972Z,3.13
2017-12-17T03:36:01.458Z,2.30
2017-12-17T03:38:28.922Z,3.17
2017-12-17T03:40:56.397Z,2.87
2017-12-17T03:43:24.317Z,3.10
2017-12-17T03:45:52.548Z,3.20
2017-12-17T03:48:20.028Z,2.80
2017-12-17T03:50:47.505Z,2.33
2017-12-17T03:53:14.968Z,3.07
2017-12-17T03:55:42.447Z,2.20
2017-12-17T03:58:09.907Z,3.20
2017-12-17T04:00:37.484Z,3.10
2017-12-17T04:03:04.961Z,2.80
2017-12-17T04:05:32.416Z,3.50
2017-12-17T04:08:00.804Z,3.80
2017-12-17T04:10:28.334Z,3.47
2017-12-17T04:12:55.818Z,2.90
2017-12-17T04:15:23.288Z,2.60
2017-12-17T04:17:50.756Z,3.30
2017-12-17T04:20:18.235Z,2.80
2017-12-17T04:22:46.493Z,2.53
2017-12-17T04:25:13.955Z,3.40
2017-12-17T04:27:42.199Z,3.17
2017-12-17T04:30:09.659Z,2.77
2017-12-17T04:32:37.145Z,2.90
2017-12-17T04:35:05.388Z,3.30
2017-12-17T04:37:32.869Z,3.10
2017-12-17T04:40:00.340Z,3.17
2017-12-17T04:42:28.564Z,3.10
2017-12-17T04:44:56.044Z,3.00
2017-12-17T04:47:23.504Z,2.77
2017-12-17T04:49:50.962Z,2.40
2017-12-17T04:52:18.805Z,2.67
2017-12-17T04:54:46.341Z,3.33
2017-12-17T04:57:13.842Z,3.00
2017-12-17T04:59:41.306Z,3.17
2017-12-17T05:02:08.787Z,3.17
2017-12-17T05:04:37.043Z,3.57
2017-12-17T05:07:04.508Z,3.10
2017-12-17T05:09:32.749Z,2.90
2017-12-17T05:12:00.209Z,2.87
2017-12-17T05:14:27.684Z,3.20
2017-12-17T05:16:55.171Z,3.20
2017-12-17T05:19:23.615Z,3.03
2017-12-17T05:21:51.091Z,2.40
2017-12-17T05:24:18.562Z,2.97
2017-12-17T05:26:46.803Z,3.30
2017-12-17T05:29:14.269Z,2.80
2017-12-17T05:31:41.715Z,3.00
2017-12-17T05:34:09.277Z,3.40
2017-12-17T05:36:36.751Z,3.40
2017-12-17T05:39:04.993Z,5.97
2017-12-17T05:41:32.471Z,4.10
2017-12-17T05:44:00.724Z,4.23
2017-12-17T05:46:28.195Z,2.83
2017-12-17T05:48:55.660Z,4.13
2017-12-17T05:51:23.129Z,3.77
2017-12-17T05:53:50.616Z,4.23
2017-12-17T05:56:18.855Z,4.07
2017-12-17T05:58:46.336Z,3.60
2017-12-17T06:01:14.144Z,3.43
2017-12-17T06:03:41.896Z,3.47
2017-12-17T06:06:09.395Z,4.23
2017-12-17T06:08:37.132Z,3.60
2017-12-17T06:11:04.613Z,4.20
2017-12-17T06:13:32.076Z,4.97
2017-12-17T06:15:59.570Z,4.07
2017-12-17T06:18:27.076Z,4.33
2017-12-17T06:20:55.320Z,4.10
2017-12-17T06:23:22.793Z,3.73
2017-12-17T06:25:50.321Z,5.07
2017-12-17T06:28:18.552Z,5.97
2017-12-17T06:30:46.031Z,4.80
2017-12-17T06:33:14.281Z,3.97
2017-12-17T06:35:41.766Z,3.87
2017-12-17T06:38:10.000Z,3.50
2017-12-17T06:40:37.452Z,3.67
2017-12-17T06:43:05.699Z,3.97
2017-12-17T06:45:33.163Z,4.13
2017-12-17T06:48:00.645Z,4.00
2017-12-17T06:50:28.109Z,4.30
2017-12-17T06:52:55.581Z,4.30
2017-12-17T06:55:23.064Z,4.47
2017-12-17T06:57:51.292Z,4.60
2017-12-17T07:00:18.781Z,5.20
2017-12-17T07:02:46.231Z,4.70
2017-12-17T07:05:13.727Z,3.80
2017-12-17T07:07:42.006Z,5.00
2017-12-17T07:10:09.474Z,5.60
2017-12-17T07:12:36.955Z,5.00
2017-12-17T07:15:04.448Z,5.70
2017-12-17T07:17:31.926Z,4.80
2017-12-17T07:19:59.406Z,5.07
2017-12-17T07:22:26.890Z,4.53
2017-12-17T07:24:54.396Z,6.00
2017-12-17T07:27:22.629Z,4.33
2017-12-17T07:29:50.125Z,4.63
2017-12-17T07:32:18.367Z,4.53
2017-12-17T07:34:45.850Z,5.30
2017-12-17T07:37:13.322Z,6.00
2017-12-17T07:39:41.561Z,6.37
2017-12-17T07:42:09.040Z,6.03
2017-12-17T07:44:36.539Z,7.13
2017-12-17T07:47:04.041Z,13.00
2017-12-17T07:49:31.543Z,15.23
2017-12-17T07:51:58.999Z,9.80
2017-12-17T07:54:26.461Z,7.63
2017-12-17T07:56:53.951Z,7.00
2017-12-17T07:59:21.402Z,6.77
2017-12-17T08:01:48.899Z,6.83
2017-12-17T08:04:16.613Z,4.87
2017-12-17T08:06:44.086Z,5.20
2017-12-17T08:09:11.548Z,5.63
2017-12-17T08:11:39.018Z,5.07
2017-12-17T08:14:06.526Z,5.60
2017-12-17T08:16:33.996Z,6.90
2017-12-17T08:19:01.504Z,6.07
2017-12-17T08:21:28.998Z,5.43
2017-12-17T08:23:56.506Z,6.00
2017-12-17T08:26:23.998Z,6.50
2017-12-17T08:28:51.683Z,6.80
2017-12-17T08:31:19.156Z,7.47
2017-12-17T08:33:46.635Z,6.80
2017-12-17T08:36:14.104Z,6.50
2017-12-17T08:38:41.602Z,5.97
2017-12-17T08:41:09.080Z,5.90
2017-12-17T08:43:36.562Z,7.73
2017-12-17T08:46:04.049Z,5.50
2017-12-17T08:48:31.553Z,7.13
2017-12-17T08:50:59.300Z,6.27
2017-12-17T08:53:26.769Z,6.10
2017-12-17T08:55:54.759Z,6.77
2017-12-17T08:58:22.314Z,6.67
2017-12-17T09:00:49.807Z,6.70
2017-12-17T09:03:17.314Z,7.40
2017-12-17T09:05:44.796Z,7.00
2017-12-17T09:08:13.075Z,6.23
2017-12-17T09:10:41.335Z,7.33
2017-12-17T09:13:08.790Z,7.03
2017-12-17T09:15:36.285Z,8.70
2017-12-17T09:18:03.735Z,7.27
2017-12-17T09:20:31.209Z,9.10
2017-12-17T09:22:59.897Z,5.37
2017-12-17T09:25:28.140Z,6.80
2017-12-17T09:27:57.174Z,6.93
2017-12-17T09:30:25.517Z,6.73
2017-12-17T09:32:52.971Z,6.73
2017-12-17T09:35:20.463Z,6.87
2017-12-17T09:37:48.701Z,6.17
2017-12-17T09:40:16.187Z,9.33
2017-12-17T09:42:43.651Z,7.80
2017-12-17T09:45:11.943Z,7.20
2017-12-17T09:47:39.444Z,7.37
2017-12-17T09:50:06.919Z,6.90
2017-12-17T09:52:34.398Z,8.53
2017-12-17T09:55:02.656Z,10.27
2017-12-17T09:57:30.154Z,7.03
2017-12-17T09:59:57.663Z,14.13
2017-12-17T10:02:25.893Z,10.27
2017-12-17T10:04:53.437Z,9.67
2017-12-17T10:07:20.947Z,8.57
2017-12-17T10:09:59.052Z,9.63
2017-12-17T10:12:28.078Z,11.13
2017-12-17T10:14:55.757Z,9.40
2017-12-17T10:17:24.015Z,6.37
2017-12-17T10:19:51.553Z,9.03
2017-12-17T10:22:19.091Z,6.80
2017-12-17T10:24:46.575Z,7.97
2017-12-17T10:27:14.056Z,7.10
2017-12-17T10:29:42.327Z,9.70
2017-12-17T10:32:09.839Z,8.47
2017-12-17T10:34:37.332Z,8.67
2017-12-17T10:37:05.054Z,7.83
2017-12-17T10:39:33.276Z,8.60
2017-12-17T10:42:00.779Z,8.00
2017-12-17T10:44:28.276Z,8.80
2017-12-17T10:46:55.781Z,9.67
2017-12-17T10:49:24.046Z,10.10
2017-12-17T10:51:51.536Z,10.63
2017-12-17T10:54:19.031Z,7.80
2017-12-17T10:56:46.511Z,11.50
2017-12-17T10:59:13.982Z,9.43
2017-12-17T11:01:41.507Z,9.77
2017-12-17T11:04:08.987Z,7.57
2017-12-17T11:06:36.477Z,7.90
2017-12-17T11:09:03.968Z,8.37
2017-12-17T11:11:31.468Z,8.10
2017-12-17T11:13:59.748Z,8.07
2017-12-17T11:16:27.986Z,7.30
2017-12-17T11:18:55.497Z,8.77
2017-12-17T11:21:22.981Z,7.70
2017-12-17T11:23:50.445Z,7.10
2017-12-17T11:26:17.935Z,8.23
2017-12-17T11:28:46.337Z,8.93
2017-12-17T11:31:13.840Z,8.90
2017-12-17T11:33:41.330Z,7.93
2017-12-17T11:36:09.585Z,6.40
2017-12-17T11:38:37.101Z,8.30
2017-12-17T11:41:04.607Z,8.87
2017-12-17T11:43:32.107Z,7.80
2017-12-17T11:45:59.899Z,7.40
2017-12-17T11:48:27.389Z,8.40
2017-12-17T11:50:54.905Z,8.97
2017-12-17T11:53:22.394Z,7.93
2017-12-17T11:55:49.927Z,7.23
2017-12-17T11:58:17.416Z,9.37
2017-12-17T12:00:45.070Z,7.43
2017-12-17T12:03:12.579Z,8.20
2017-12-17T12:05:40.821Z,8.20
2017-12-17T12:08:08.321Z,8.13
2017-12-17T12:10:35.876Z,9.80
2017-12-17T12:13:03.442Z,8.77
2017-12-17T12:15:30.945Z,6.47
2017-12-17T12:17:58.451Z,8.00
2017-12-17T12:20:25.967Z,7.27
2017-12-17T12:22:53.464Z,6.57
2017-12-17T12:25:21.007Z,7.03
2017-12-17T12:27:48.511Z,6.50
2017-12-17T12:30:15.995Z,7.90
2017-12-17T12:32:43.494Z,8.90
2017-12-17T12:35:11.781Z,9.00
2017-12-17T12:37:39.272Z,10.33
2017-12-17T12:40:06.787Z,7.23
2017-12-17T12:42:34.297Z,8.10
2017-12-17T12:45:01.791Z,6.67
2017-12-17T12:47:30.056Z,13.07
2017-12-17T12:49:57.571Z,13.13
2017-12-17T12:52:25.153Z,8.13
2017-12-17T12:54:52.651Z,6.67
2017-12-17T12:57:20.182Z,8.60
2017-12-17T12:59:47.698Z,10.77
2017-12-17T13:02:15.230Z,9.33
2017-12-17T13:04:43.008Z,8.30
2017-12-17T13:07:10.493Z,10.77
2017-12-17T13:09:38.043Z,9.47
2017-12-17T13:12:05.770Z,9.83
2017-12-17T13:14:33.279Z,10.13
2017-12-17T13:17:00.812Z,9.77
2017-12-17T13:19:28.307Z,8.10
2017-12-17T13:21:55.853Z,11.27
2017-12-17T13:24:23.335Z,9.03
2017-12-17T13:26:50.865Z,8.70
2017-12-17T13:29:18.377Z,8.50
2017-12-17T13:31:46.933Z,10.30
2017-12-17T13:34:14.470Z,9.23
2017-12-17T13:36:41.974Z,7.37
2017-12-17T13:39:09.470Z,7.50
2017-12-17T13:41:37.024Z,10.00
2017-12-17T13:44:05.299Z,8.90
2017-12-17T13:46:32.821Z,7.53
2017-12-17T13:49:00.344Z,7.20
2017-12-17T13:51:27.821Z,6.47
2017-12-17T13:53:55.308Z,9.13
2017-12-17T13:56:22.782Z,7.33
2017-12-17T13:58:50.307Z,34.13
2017-12-17T14:01:18.563Z,11.37
2017-12-17T14:03:46.119Z,15.07
2017-12-17T14:06:13.648Z,7.93
2017-12-17T14:08:41.148Z,7.97
2017-12-17T14:11:08.648Z,8.23
2017-12-17T14:13:36.135Z,5.80
2017-12-17T14:16:03.638Z,6.87
2017-12-17T14:18:31.928Z,8.70
2017-12-17T14:20:59.451Z,7.40
2017-12-17T14:23:26.937Z,7.03
2017-12-17T14:25:54.530Z,8.97
2017-12-17T14:28:22.026Z,6.40
2017-12-17T14:30:49.586Z,7.70
2017-12-17T14:33:17.099Z,7.60
2017-12-17T14:35:44.609Z,8.80
2017-12-17T14:38:15.683Z,8.67
2017-12-17T14:40:43.965Z,7.00
2017-12-17T14:43:11.479Z,7.50
2017-12-17T14:45:38.992Z,6.90
2017-12-17T14:48:06.511Z,7.40
2017-12-17T14:50:34.836Z,8.27
2017-12-17T14:53:02.324Z,7.53
2017-12-17T14:55:29.887Z,7.57
2017-12-17T14:57:57.378Z,6.07
2017-12-17T15:00:25.674Z,7.10
2017-12-17T15:02:53.151Z,8.33
2017-12-17T15:05:20.644Z,6.67
2017-12-17T15:07:48.243Z,8.30
2017-12-17T15:10:15.702Z,6.50
2017-12-17T15:12:43.211Z,6.40
2017-12-17T15:15:10.711Z,8.30
2017-12-17T15:17:38.969Z,8.97
2017-12-17T15:20:06.488Z,8.60
2017-12-17T15:22:34.778Z,10.13
2017-12-17T15:25:02.275Z,7.50
2017-12-17T15:27:29.778Z,7.93
2017-12-17T15:29:57.278Z,8.17
2017-12-17T15:32:24.844Z,9.73
2017-12-17T15:34:53.116Z,9.07
2017-12-17T15:37:21.665Z,9.80
2017-12-17T15:39:49.165Z,9.93
2017-12-17T15:42:16.690Z,11.17
2017-12-17T15:44:44.203Z,11.33
2017-12-17T15:47:11.719Z,10.03
2017-12-17T15:49:40.025Z,10.70
2017-12-17T15:52:07.576Z,10.80
2017-12-17T15:54:35.121Z,11.20
2017-12-17T15:57:03.382Z,12.27
2017-12-17T15:59:32.393Z,13.30
2017-12-17T16:02:00.631Z,12.20
2017-12-17T16:04:28.137Z,12.60
2017-12-17T16:06:55.621Z,11.53
2017-12-17T16:09:23.143Z,12.80
2017-12-17T16:11:51.411Z,15.80
2017-12-17T16:14:19.145Z,21.10
2017-12-17T16:16:46.656Z,13.40
2017-12-17T16:19:14.152Z,12.93
2017-12-17T16:21:41.679Z,13.13
2017-12-17T16:24:09.188Z,7.40
2017-12-17T16:26:36.713Z,10.33
2017-12-17T16:29:04.226Z,10.90
2017-12-17T16:31:32.609Z,10.60
2017-12-17T16:34:00.851Z,10.57
2017-12-17T16:36:28.361Z,9.80
2017-12-17T16:38:55.848Z,11.97
2017-12-17T16:41:23.425Z,10.50
2017-12-17T16:43:50.905Z,10.90
2017-12-17T16:46:18.424Z,9.40
2017-12-17T16:48:46.668Z,9.80
2017-12-17T16:51:14.182Z,11.43
2017-12-17T16:53:43.493Z,11.00
2017-12-17T16:56:10.973Z,10.93
2017-12-17T16:58:38.505Z,9.67
2017-12-17T17:01:05.990Z,9.37
2017-12-17T17:03:33.745Z,17.13
2017-12-17T17:06:02.035Z,14.50
2017-12-17T17:08:29.538Z,11.80
2017-12-17T17:10:57.032Z,11.47
2017-12-17T17:13:24.797Z,12.10
2017-12-17T17:15:52.329Z,22.67
2017-12-17T17:18:19.877Z,14.50
2017-12-17T17:20:47.455Z,11.57
2017-12-17T17:23:15.072Z,12.60
2017-12-17T17:25:42.578Z,14.03
2017-12-17T17:28:10.106Z,14.93
2017-12-17T17:30:37.622Z,19.30
2017-12-17T17:33:05.925Z,28.77
2017-12-17T17:35:33.464Z,27.53
2017-12-17T17:38:01.058Z,15.90
2017-12-17T17:40:28.536Z,13.10
2017-12-17T17:42:56.036Z,14.67
2017-12-17T17:45:23.536Z,12.10
2017-12-17T17:47:51.051Z,13.40
2017-12-17T17:50:18.539Z,13.00
2017-12-17T17:52:46.787Z,14.00
2017-12-17T17:55:14.336Z,12.43
2017-12-17T17:57:42.581Z,13.00
2017-12-17T18:00:10.091Z,13.30
2017-12-17T18:02:37.630Z,14.73
2017-12-17T18:05:05.215Z,14.57
2017-12-17T18:07:32.864Z,13.20
2017-12-17T18:10:01.119Z,12.93
2017-12-17T18:12:28.684Z,14.17
2017-12-17T18:14:56.177Z,15.10
2017-12-17T18:17:23.906Z,11.83
2017-12-17T18:19:52.501Z,11.67
2017-12-17T18:22:20.283Z,13.00
2017-12-17T18:24:47.798Z,13.03
2017-12-17T18:27:15.362Z,13.10
2017-12-17T18:29:42.855Z,15.70
2017-12-17T18:32:10.384Z,14.70
2017-12-17T18:34:38.636Z,14.40
2017-12-17T18:37:06.174Z,15.40
2017-12-17T18:39:33.686Z,14.50
2017-12-17T18:42:01.948Z,13.40
2017-12-17T18:44:30.225Z,12.03
2017-12-17T18:46:58.512Z,11.90
2017-12-17T18:49:26.408Z,11.00
2017-12-17T18:51:53.944Z,11.33
2017-12-17T18:54:21.462Z,11.13
2017-12-17T18:56:48.996Z,10.43
2017-12-17T18:59:16.523Z,8.87
2017-12-17T19:01:44.030Z,12.10
2017-12-17T19:04:11.541Z,14.23
2017-12-17T19:06:39.073Z,13.03
2017-12-17T19:09:06.609Z,13.20
2017-12-17T19:11:34.085Z,12.50
2017-12-17T19:14:01.570Z,10.30
2017-12-17T19:16:29.882Z,11.50
2017-12-17T19:18:57.407Z,12.90
2017-12-17T19:21:24.952Z,10.20
2017-12-17T19:23:52.487Z,11.87
2017-12-17T19:26:20.003Z,10.27
2017-12-17T19:28:48.338Z,11.47
2017-12-17T19:31:15.789Z,13.30
2017-12-17T19:33:43.518Z,11.20
2017-12-17T19:36:11.067Z,9.93
2017-12-17T19:38:38.705Z,14.70
2017-12-17T19:41:06.355Z,9.63
2017-12-17T19:43:34.630Z,9.10
2017-12-17T19:46:02.366Z,9.57
2017-12-17T19:48:29.964Z,8.80
2017-12-17T19:50:57.510Z,8.50
2017-12-17T19:53:25.118Z,8.90
2017-12-17T19:55:52.759Z,8.53
2017-12-17T19:58:20.482Z,9.20
2017-12-17T20:00:48.249Z,9.60
2017-12-17T20:03:16.064Z,9.33
2017-12-17T20:05:43.861Z,8.90
2017-12-17T20:08:11.788Z,8.80
2017-12-17T20:10:39.813Z,9.03
2017-12-17T20:13:07.695Z,9.40
2017-12-17T20:15:35.470Z,9.13
2017-12-17T20:18:04.187Z,8.93
2017-12-17T20:20:32.538Z,7.43
2017-12-17T20:23:00.383Z,8.27
2017-12-17T20:25:28.238Z,9.03
2017-12-17T20:27:56.076Z,10.07
2017-12-17T20:30:23.913Z,7.90
2017-12-17T20:32:51.675Z,8.20
2017-12-17T20:35:19.488Z,8.33
2017-12-17T20:37:47.389Z,8.80
2017-12-17T20:40:16.063Z,9.70
2017-12-17T20:42:43.904Z,9.83
2017-12-17T20:45:12.517Z,8.70
2017-12-17T20:47:40.155Z,8.07
2017-12-17T20:50:08.551Z,10.40
2017-12-17T20:52:36.108Z,8.40
2017-12-17T20:55:03.842Z,8.47
2017-12-17T20:57:31.354Z,8.57
2017-12-17T20:59:58.957Z,8.90
2017-12-17T21:02:26.757Z,8.53
2017-12-17T21:04:54.350Z,9.20
2017-12-17T21:07:22.178Z,9.30
2017-12-17T21:09:49.691Z,9.30
2017-12-17T21:12:17.457Z,10.03
2017-12-17T21:14:44.983Z,8.70
2017-12-17T21:17:13.399Z,10.07
2017-12-17T21:19:41.035Z,10.47
2017-12-17T21:22:08.582Z,9.23
2017-12-17T21:24:36.924Z,9.80
2017-12-17T21:27:04.588Z,9.00
2017-12-17T21:29:32.094Z,10.57
2017-12-17T21:31:59.612Z,9.97
2017-12-17T21:34:27.096Z,8.67
2017-12-17T21:36:54.592Z,7.80
2017-12-17T21:39:22.338Z,7.80
2017-12-17T21:41:50.587Z,7.97
2017-12-17T21:44:22.308Z,8.73
2017-12-17T21:46:49.942Z,8.60
2017-12-17T21:49:17.502Z,8.00
2017-12-17T21:51:44.992Z,8.90
2017-12-17T21:54:41.955Z,8.27
2017-12-17T21:57:09.477Z,8.27
2017-12-17T21:59:37.086Z,9.73
2017-12-17T22:02:05.536Z,9.70
2017-12-17T22:04:33.135Z,9.27
2017-12-17T22:07:00.670Z,10.03
2017-12-17T22:09:28.256Z,10.43
2017-12-17T22:11:55.778Z,11.50
2017-12-17T22:14:23.422Z,9.67
2017-12-17T22:16:50.970Z,8.30
2017-12-17T22:19:19.260Z,8.43
2017-12-17T22:21:46.818Z,8.87
2017-12-17T22:24:15.122Z,9.30
2017-12-17T22:26:43.411Z,9.07
2017-12-17T22:29:11.777Z,8.70
2017-12-17T22:31:39.504Z,5.73
2017-12-17T22:34:06.985Z,7.27
2017-12-17T22:36:34.463Z,6.57
2017-12-17T22:39:01.966Z,6.63
2017-12-17T22:41:29.465Z,6.40
2017-12-17T22:43:56.956Z,5.90
2017-12-17T22:46:24.474Z,6.60
2017-12-17T22:48:51.987Z,6.00
2017-12-17T22:51:19.551Z,8.40
2017-12-17T22:53:47.050Z,7.83
2017-12-17T22:56:14.588Z,8.77
2017-12-17T22:58:42.097Z,10.53
2017-12-17T23:01:09.605Z,10.10
2017-12-17T23:03:37.974Z,9.80
2017-12-17T23:06:05.471Z,7.80
2017-12-17T23:08:33.204Z,9.50
2017-12-17T23:11:00.740Z,10.13
2017-12-17T23:13:29.114Z,7.40
2017-12-17T23:15:56.616Z,8.13
2017-12-17T23:18:24.983Z,8.03
2017-12-17T23:20:52.508Z,7.43
2017-12-17T23:23:20.008Z,6.97
2017-12-17T23:25:47.517Z,9.07
2017-12-17T23:28:15.012Z,8.40
2017-12-17T23:30:43.318Z,7.93
2017-12-17T23:33:10.910Z,8.17
2017-12-17T23:35:42.848Z,7.63
2017-12-17T23:38:11.094Z,8.10
2017-12-17T23:40:38.590Z,7.03
2017-12-17T23:43:06.874Z,7.10
2017-12-17T23:45:35.177Z,6.53
2017-12-17T23:48:02.664Z,5.60
2017-12-17T23:50:30.198Z,6.30
2017-12-17T23:52:57.724Z,6.47
2017-12-17T23:55:25.995Z,6.80
2017-12-17T23:57:53.498Z,5.47
